createdAt,value
2018-09-14T00:02:39.120Z,3.10
2018-09-14T00:07:44.741Z,2.80
2018-09-14T00:12:48.773Z,2.73
2018-09-14T00:17:53.058Z,2.97
2018-09-14T00:22:56.850Z,3.00
2018-09-14T00:28:01.011Z,2.90
2018-09-14T00:33:04.738Z,3.20
2018-09-14T00:38:08.574Z,2.73
2018-09-14T00:43:12.024Z,3.60
2018-09-14T00:48:15.686Z,3.70
2018-09-14T00:53:19.140Z,2.83
2018-09-14T00:58:22.943Z,2.90
2018-09-14T01:03:26.770Z,3.40
2018-09-14T01:08:30.722Z,3.93
2018-09-14T01:13:34.306Z,2.83
2018-09-14T01:18:37.921Z,3.33
2018-09-14T01:23:41.389Z,2.73
2018-09-14T01:28:45.002Z,2.70
2018-09-14T01:33:48.529Z,3.40
2018-09-14T01:38:52.395Z,3.10
2018-09-14T01:43:56.149Z,2.80
2018-09-14T01:48:59.636Z,3.90
2018-09-14T01:54:03.419Z,2.43
2018-09-14T01:59:07.088Z,2.70
2018-09-14T02:04:17.329Z,2.53
2018-09-14T02:09:37.172Z,2.23
2018-09-14T02:14:41.621Z,2.47
2018-09-14T02:19:45.551Z,2.13
2018-09-14T02:24:49.129Z,2.50
2018-09-14T02:29:53.055Z,2.00
2018-09-14T02:34:57.189Z,2.80
2018-09-14T02:40:00.932Z,2.70
2018-09-14T02:45:05.004Z,2.27
2018-09-14T02:50:08.606Z,2.57
2018-09-14T02:55:12.549Z,2.40
2018-09-14T03:00:16.175Z,2.43
2018-09-14T03:05:19.737Z,2.30
2018-09-14T03:10:23.650Z,2.80
2018-09-14T03:15:27.406Z,2.30
2018-09-14T03:20:31.001Z,2.97
2018-09-14T03:25:34.795Z,1.90
2018-09-14T03:30:38.675Z,2.03
2018-09-14T03:35:42.472Z,2.73
2018-09-14T03:40:45.894Z,2.70
2018-09-14T03:45:49.473Z,2.60
2018-09-14T03:50:52.975Z,2.80
2018-09-14T03:55:56.421Z,2.90
2018-09-14T04:01:00.076Z,3.47
2018-09-14T04:06:04.540Z,2.77
2018-09-14T04:11:07.924Z,3.07
2018-09-14T04:16:11.604Z,2.70
2018-09-14T04:21:15.059Z,3.07
2018-09-14T04:26:18.683Z,4.57
2018-09-14T04:31:22.135Z,2.53
2018-09-14T04:36:25.783Z,3.27
2018-09-14T04:41:33.211Z,3.20
2018-09-14T04:46:37.589Z,3.97
2018-09-14T04:51:40.980Z,2.70
2018-09-14T04:56:44.472Z,3.17
2018-09-14T05:01:49.078Z,3.10
2018-09-14T05:06:56.945Z,3.53
2018-09-14T05:12:02.613Z,3.50
2018-09-14T05:17:06.087Z,4.97
2018-09-14T05:22:09.633Z,3.73
2018-09-14T05:27:13.191Z,3.80
2018-09-14T05:32:17.350Z,4.00
2018-09-14T05:37:20.749Z,3.50
2018-09-14T05:42:24.207Z,3.97
2018-09-14T05:47:27.641Z,3.57
2018-09-14T05:52:31.344Z,5.33
2018-09-14T05:57:34.869Z,4.53
2018-09-14T06:02:38.219Z,3.70
2018-09-14T06:07:41.631Z,3.63
2018-09-14T06:12:45.022Z,5.00
2018-09-14T06:17:48.464Z,4.60
2018-09-14T06:22:51.999Z,5.90
2018-09-14T06:27:55.857Z,5.27
2018-09-14T06:32:59.591Z,4.70
2018-09-14T06:38:03.056Z,5.57
2018-09-14T06:43:06.858Z,4.80
2018-09-14T06:48:10.281Z,5.60
2018-09-14T06:53:13.748Z,4.43
2018-09-14T06:58:17.242Z,4.60
2018-09-14T07:03:20.645Z,3.90
2018-09-14T07:08:24.056Z,4.30
2018-09-14T07:13:27.471Z,4.37
2018-09-14T07:18:30.849Z,3.33
2018-09-14T07:23:34.595Z,2.63
2018-09-14T07:28:38.053Z,4.50
2018-09-14T07:33:41.526Z,3.40
2018-09-14T07:38:44.968Z,3.03
2018-09-14T07:43:48.379Z,2.63
2018-09-14T07:48:51.750Z,3.40
2018-09-14T07:53:55.238Z,2.47
2018-09-14T07:58:58.651Z,2.20
2018-09-14T08:04:02.607Z,2.57
2018-09-14T08:09:09.919Z,2.20
2018-09-14T08:14:17.973Z,2.80
2018-09-14T08:19:22.031Z,2.90
2018-09-14T08:24:25.393Z,2.40
2018-09-14T08:29:32.661Z,2.37
2018-09-14T08:34:41.669Z,2.50
2018-09-14T08:39:50.424Z,2.60
2018-09-14T08:44:54.248Z,2.10
2018-09-14T08:49:57.678Z,2.47
2018-09-14T08:55:01.052Z,2.20
2018-09-14T09:00:04.535Z,2.83
2018-09-14T09:05:07.959Z,2.80
2018-09-14T09:10:11.348Z,3.30
2018-09-14T09:15:14.917Z,2.30
2018-09-14T09:20:18.334Z,3.67
2018-09-14T09:25:21.758Z,3.80
2018-09-14T09:30:25.547Z,3.90
2018-09-14T09:35:29.137Z,4.33
2018-09-14T09:40:32.583Z,3.93
2018-09-14T09:45:35.939Z,3.80
2018-09-14T09:50:39.547Z,3.77
2018-09-14T09:55:42.944Z,4.53
2018-09-14T10:00:51.722Z,4.43
2018-09-14T10:05:56.216Z,5.73
2018-09-14T10:10:59.676Z,4.00
2018-09-14T10:16:03.151Z,3.10
2018-09-14T10:21:06.773Z,3.67
2018-09-14T10:26:10.140Z,5.07
2018-09-14T10:31:13.565Z,5.60
2018-09-14T10:36:16.953Z,4.00
2018-09-14T10:41:20.394Z,6.03
2018-09-14T10:46:23.828Z,4.63
2018-09-14T10:51:27.306Z,5.60
2018-09-14T10:56:30.678Z,5.47
2018-09-14T11:01:34.126Z,6.70
2018-09-14T11:06:41.044Z,6.53
2018-09-14T11:11:45.070Z,6.43
2018-09-14T11:16:48.475Z,6.30
2018-09-14T11:21:51.878Z,4.30
2018-09-14T11:26:55.270Z,3.60
2018-09-14T11:31:58.654Z,4.00
2018-09-14T11:37:02.038Z,3.77
2018-09-14T11:42:05.488Z,3.47
2018-09-14T11:47:08.901Z,2.27
2018-09-14T11:52:12.264Z,3.30
2018-09-14T11:57:15.633Z,2.90
2018-09-14T12:02:19.167Z,3.30
2018-09-14T12:07:22.761Z,2.80
2018-09-14T12:12:26.866Z,2.80
2018-09-14T12:17:31.275Z,3.00
2018-09-14T12:22:37.249Z,2.93
2018-09-14T12:27:41.582Z,2.17
2018-09-14T12:32:44.995Z,3.30
2018-09-14T12:37:48.445Z,2.63
2018-09-14T12:42:54.799Z,2.87
2018-09-14T12:47:58.828Z,2.30
2018-09-14T12:53:02.281Z,2.77
2018-09-14T12:58:05.780Z,2.93
2018-09-14T13:03:09.276Z,4.30
2018-09-14T13:08:30.340Z,2.50
2018-09-14T13:13:43.024Z,3.03
2018-09-14T13:18:47.642Z,2.60
2018-09-14T13:23:51.138Z,4.77
2018-09-14T13:28:55.669Z,3.10
2018-09-14T13:34:01.098Z,3.20
2018-09-14T13:39:07.102Z,2.43
2018-09-14T13:44:16.821Z,2.80
2018-09-14T13:49:21.505Z,3.57
2018-09-14T13:54:24.969Z,2.83
2018-09-14T13:59:28.350Z,2.97
2018-09-14T14:04:31.763Z,3.13
2018-09-14T14:09:35.301Z,2.60
2018-09-14T14:14:38.693Z,3.00
2018-09-14T14:19:42.054Z,3.70
2018-09-14T14:24:45.545Z,3.57
2018-09-14T14:29:48.957Z,3.70
2018-09-14T14:34:52.430Z,3.20
2018-09-14T14:40:03.543Z,2.70
2018-09-14T14:45:07.471Z,2.80
2018-09-14T14:50:10.862Z,3.37
2018-09-14T14:55:14.303Z,4.30
2018-09-14T15:00:17.999Z,3.60
2018-09-14T15:05:22.101Z,2.80
2018-09-14T15:10:25.498Z,3.10
2018-09-14T15:15:28.941Z,2.67
2018-09-14T15:20:40.437Z,4.03
2018-09-14T15:25:44.530Z,3.23
2018-09-14T15:30:47.916Z,3.27
2018-09-14T15:35:51.342Z,3.77
2018-09-14T15:40:54.897Z,3.87
2018-09-14T15:45:58.334Z,4.40
2018-09-14T15:51:01.754Z,4.53
2018-09-14T15:56:09.423Z,3.50
2018-09-14T16:01:13.666Z,3.30
2018-09-14T16:06:17.487Z,3.23
2018-09-14T16:11:21.439Z,3.62
2018-09-14T16:16:25.476Z,3.73
2018-09-14T16:21:29.414Z,3.13
2018-09-14T16:26:34.503Z,2.73
2018-09-14T16:31:38.495Z,3.40
2018-09-14T16:36:42.665Z,2.70
2018-09-14T16:41:46.302Z,2.97
2018-09-14T16:46:53.146Z,3.07
2018-09-14T16:51:57.948Z,3.70
2018-09-14T16:57:01.398Z,3.53
2018-09-14T17:02:05.047Z,3.37
2018-09-14T17:07:08.904Z,4.10
2018-09-14T17:12:12.338Z,3.80
2018-09-14T17:17:15.915Z,2.77
2018-09-14T17:22:19.665Z,3.50
2018-09-14T17:27:23.294Z,2.53
2018-09-14T17:32:26.823Z,3.10
2018-09-14T17:37:32.836Z,3.20
2018-09-14T17:42:42.393Z,4.57
2018-09-14T17:47:47.469Z,3.20
2018-09-14T17:52:51.136Z,2.30
2018-09-14T17:57:54.953Z,3.97
2018-09-14T18:03:01.914Z,4.30
2018-09-14T18:08:06.313Z,2.70
2018-09-14T18:13:10.072Z,3.63
2018-09-14T18:18:13.665Z,3.87
2018-09-14T18:23:17.530Z,2.77
2018-09-14T18:28:21.106Z,4.43
2018-09-14T18:33:25.322Z,3.53
2018-09-14T18:38:29.495Z,3.53
2018-09-14T18:43:32.987Z,3.10
2018-09-14T18:48:36.494Z,5.43
2018-09-14T18:53:39.932Z,5.43
2018-09-14T18:58:43.502Z,5.03
2018-09-14T19:03:47.795Z,6.27
2018-09-14T19:08:51.532Z,3.83
2018-09-14T19:13:55.070Z,3.40
2018-09-14T19:18:58.581Z,4.20
2018-09-14T19:24:03.137Z,4.47
2018-09-14T19:29:06.622Z,4.47
2018-09-14T19:34:10.369Z,5.03
2018-09-14T19:39:15.221Z,4.50
2018-09-14T19:44:19.206Z,4.73
2018-09-14T19:49:25.958Z,5.23
2018-09-14T19:54:35.328Z,3.80
2018-09-14T19:59:39.270Z,3.07
2018-09-14T20:04:43.127Z,3.47
2018-09-14T20:09:46.964Z,3.70
2018-09-14T20:14:50.496Z,3.27
2018-09-14T20:19:54.176Z,3.03
2018-09-14T20:24:58.298Z,3.23
2018-09-14T20:30:01.965Z,2.70
2018-09-14T20:35:06.302Z,3.70
2018-09-14T20:40:10.183Z,2.77
2018-09-14T20:45:13.902Z,2.43
2018-09-14T20:50:18.003Z,2.10
2018-09-14T20:55:21.681Z,2.70
2018-09-14T21:00:25.743Z,4.10
2018-09-14T21:05:30.286Z,2.77
2018-09-14T21:10:36.492Z,2.80
2018-09-14T21:15:59.643Z,3.00
2018-09-14T21:21:06.259Z,2.80
2018-09-14T21:26:09.814Z,2.30
2018-09-14T21:31:13.405Z,2.97
2018-09-14T21:36:17.073Z,1.77
2018-09-14T21:41:20.486Z,4.07
2018-09-14T21:46:23.896Z,3.37
2018-09-14T21:51:27.477Z,2.90
2018-09-14T21:56:31.031Z,3.77
2018-09-14T22:01:34.533Z,2.37
2018-09-14T22:06:38.553Z,2.93
2018-09-14T22:11:42.040Z,2.10
2018-09-14T22:16:45.625Z,3.63
2018-09-14T22:23:04.267Z,2.67
2018-09-14T22:28:14.507Z,2.73
2018-09-14T22:33:18.832Z,3.17
2018-09-14T22:38:22.717Z,2.83
2018-09-14T22:43:26.106Z,3.40
2018-09-14T22:48:31.361Z,2.20
2018-09-14T22:53:35.673Z,2.20
2018-09-14T22:58:41.341Z,4.37
2018-09-14T23:03:53.425Z,3.53
2018-09-14T23:08:57.982Z,4.20
2018-09-14T23:14:06.603Z,4.40
2018-09-14T23:19:11.518Z,3.40
2018-09-14T23:24:15.045Z,3.53
2018-09-14T23:29:18.437Z,2.90
2018-09-14T23:34:22.239Z,2.97
2018-09-14T23:39:26.238Z,3.30
2018-09-14T23:44:35.179Z,2.87
2018-09-14T23:49:41.870Z,3.40
2018-09-14T23:54:46.202Z,3.37
2018-09-14T23:59:49.927Z,4.03
